Terminal Aerodrome Forecast
Issued by NWS

Home | Current Version | Previous Version | Text Only | Print | Product List | Glossary On
Versions: 1 2 3 4 5 6 7 8 9 10 11 12 13 14 15 16 17 18 19 20 21 22 23 24 25 26
000
FTUS46 KMTR 191139
TAFSJC
TAF
KSJC 191139Z 1912/2012 15008KT P6SM SKC
     FM191600 VRB05KT P6SM FEW015
     FM192000 29008KT P6SM SKC
     FM200700 15010KT P6SM BKN015=

USA.gov is the U.S. government's official web portal to all federal, state and local government web resources and services.